Time;durP1;ratioP1;P1;durP2;ratioP2;P2;SDS_P1;SDS_P2;PMS_P1;PMS_P2;Temp;Humidity;BMP_temperature;BMP_pressure;BME280_temperature;BME280_humidity;BME280_pressure;Samples;Min_cycle;Max_cycle;Signal;HPM_P1;HPM_P2
2023/06/03 00:01:07;;;;;;;17.33;5.60;;;;;;;19.44;55.00;101267.22;4995802;28;20027;-49
2023/06/03 00:03:33;;;;;;;21.17;5.55;;;;;;;19.11;55.91;101275.50;4996063;28;20030;-50
2023/06/03 00:06:00;;;;;;;20.17;5.88;;;;;;;18.95;56.56;101269.88;4995920;28;20026;-47
2023/06/03 00:08:27;;;;;;;18.05;5.60;;;;;;;18.98;57.42;101271.25;4995771;28;20030;-50
2023/06/03 00:10:53;;;;;;;26.48;6.35;;;;;;;18.72;58.01;101268.19;4995910;28;20033;-50
2023/06/03 00:13:19;;;;;;;19.92;6.03;;;;;;;18.68;58.19;101269.75;4995772;28;20108;-47
2023/06/03 00:15:46;;;;;;;15.95;6.05;;;;;;;18.36;58.41;101272.22;4995604;28;20093;-50
2023/06/03 00:18:15;;;;;;;23.90;6.78;;;;;;;18.52;58.81;101278.72;4995948;28;20375;-48
2023/06/03 00:20:47;;;;;;;21.08;5.70;;;;;;;18.27;59.74;101270.19;4995556;28;20129;-48
2023/06/03 00:23:16;;;;;;;20.73;5.97;;;;;;;18.34;59.55;101274.38;4995366;28;20042;-49
2023/06/03 00:25:43;;;;;;;20.98;5.80;;;;;;;18.58;59.07;101272.28;4995608;28;20383;-48
2023/06/03 00:28:09;;;;;;;20.60;6.13;;;;;;;17.84;60.39;101274.34;4995350;28;20019;-51
2023/06/03 00:30:36;;;;;;;19.05;5.95;;;;;;;18.11;60.14;101275.38;4995368;28;20070;-51
2023/06/03 00:33:04;;;;;;;15.55;5.32;;;;;;;18.00;60.24;101265.41;4995122;28;20022;-50
2023/06/03 00:35:30;;;;;;;17.98;5.80;;;;;;;17.98;60.70;101255.88;4995490;28;20386;-50
2023/06/03 00:37:57;;;;;;;21.65;5.57;;;;;;;17.90;60.67;101251.69;4994914;28;20074;-48
2023/06/03 00:40:23;;;;;;;20.05;5.82;;;;;;;17.68;60.73;101263.19;4995289;28;20090;-47
2023/06/03 00:42:49;;;;;;;25.42;7.00;;;;;;;17.81;60.91;101266.69;4994979;28;20426;-50
2023/06/03 00:45:15;;;;;;;20.38;6.28;;;;;;;17.24;62.04;101266.66;4994912;28;20084;-51
2023/06/03 00:47:42;;;;;;;20.92;6.10;;;;;;;17.39;63.37;101269.69;4995033;28;20034;-48
2023/06/03 00:50:11;;;;;;;21.80;6.53;;;;;;;17.61;62.24;101262.53;4994882;28;20026;-50
2023/06/03 00:52:39;;;;;;;22.88;5.85;;;;;;;17.49;61.79;101269.88;4994892;28;20025;-48
2023/06/03 00:55:06;;;;;;;24.15;6.32;;;;;;;17.61;62.33;101265.25;4994743;28;20403;-50
2023/06/03 00:57:32;;;;;;;27.83;6.82;;;;;;;17.59;62.10;101272.75;4994584;28;20026;-49
2023/06/03 00:59:59;;;;;;;23.92;5.90;;;;;;;17.32;63.08;101277.94;4994915;28;20415;-49
2023/06/03 01:02:25;;;;;;;19.40;6.07;;;;;;;17.53;63.12;101265.59;4994746;28;20045;-48
2023/06/03 01:04:55;;;;;;;19.50;6.28;;;;;;;17.57;62.68;101264.06;4994573;28;20036;-48
2023/06/03 01:07:46;;;;;;;25.67;5.57;;;;;;;17.65;62.79;101255.53;4994568;28;20030;-51
2023/06/03 01:10:39;;;;;;;20.13;5.88;;;;;;;17.25;62.14;101263.72;4994907;28;20023;-50
2023/06/03 01:13:31;;;;;;;24.45;6.90;;;;;;;16.98;62.68;101259.91;4994839;28;20062;-47
2023/06/03 01:16:04;;;;;;;24.40;6.43;;;;;;;16.96;63.06;101251.22;4994674;28;20110;-52
2023/06/03 01:18:35;;;;;;;19.05;6.03;;;;;;;16.48;64.30;101253.09;4994351;28;20112;-49
2023/06/03 01:21:03;;;;;;;22.58;5.60;;;;;;;16.79;63.74;101251.13;4994400;28;20022;-49
2023/06/03 01:23:33;;;;;;;20.33;6.05;;;;;;;16.88;63.44;101253.22;4994098;28;20061;-50
2023/06/03 01:26:06;;;;;;;23.80;6.00;;;;;;;17.26;62.30;101259.13;4994323;28;20030;-48
2023/06/03 01:28:32;;;;;;;23.75;5.65;;;;;;;17.42;60.96;101256.47;4994167;28;20472;-47
2023/06/03 01:31:02;;;;;;;21.70;6.20;;;;;;;17.20;62.22;101257.38;4994160;28;20104;-47
2023/06/03 01:33:29;;;;;;;18.75;6.00;;;;;;;17.30;62.28;101254.88;4993967;28;20026;-49
2023/06/03 01:36:00;;;;;;;16.75;5.53;;;;;;;17.13;62.47;101260.22;5008967;28;20430;-52
2023/06/03 01:38:27;;;;;;;21.05;5.57;;;;;;;17.14;61.86;101256.44;4993901;28;20034;-51
2023/06/03 01:40:54;;;;;;;26.52;5.90;;;;;;;17.05;62.17;101264.13;4993562;28;20390;-48
2023/06/03 01:43:20;;;;;;;26.85;5.72;;;;;;;17.32;61.31;101258.16;4993960;28;20542;-47
2023/06/03 01:45:47;;;;;;;19.70;5.50;;;;;;;17.42;61.39;101252.94;4994547;28;20394;-48
2023/06/03 01:48:14;;;;;;;16.88;5.65;;;;;;;16.97;61.60;101250.97;4994551;28;20114;-47
2023/06/03 01:50:44;;;;;;;12.52;5.30;;;;;;;17.01;62.22;101251.31;4995152;28;20494;-47
2023/06/03 01:53:10;;;;;;;17.90;5.20;;;;;;;17.13;61.60;101252.94;4993968;28;20034;-49
2023/06/03 01:55:37;;;;;;;19.63;6.10;;;;;;;17.05;62.33;101242.50;4993994;28;20101;-51
2023/06/03 01:58:04;;;;;;;22.88;6.10;;;;;;;16.93;62.29;101257.09;4993882;28;20030;-51
2023/06/03 02:00:30;;;;;;;23.40;5.90;;;;;;;17.25;61.83;101262.91;4993847;28;20030;-51
2023/06/03 02:02:56;;;;;;;20.63;6.45;;;;;;;17.27;60.98;101258.09;4994079;28;20026;-49
2023/06/03 02:05:22;;;;;;;21.52;5.65;;;;;;;17.63;60.54;101254.97;4993655;28;20360;-48
2023/06/03 02:07:49;;;;;;;20.98;5.45;;;;;;;17.89;59.27;101248.19;4993965;28;20026;-51
2023/06/03 02:10:15;;;;;;;24.42;6.10;;;;;;;17.96;58.63;101252.59;4994436;28;20022;-50
2023/06/03 02:12:42;;;;;;;20.05;5.38;;;;;;;18.15;57.95;101254.00;4993689;28;20023;-48
2023/06/03 02:15:08;;;;;;;23.10;6.00;;;;;;;18.13;57.63;101256.97;4993529;28;20034;-51
2023/06/03 02:17:36;;;;;;;20.42;5.35;;;;;;;17.98;58.25;101255.88;4993518;28;20026;-50
2023/06/03 02:20:03;;;;;;;20.38;5.85;;;;;;;18.01;57.81;101256.22;4993342;28;20018;-49
2023/06/03 02:22:29;;;;;;;23.95;6.10;;;;;;;18.05;58.15;101251.97;4993580;28;20167;-52
2023/06/03 02:24:57;;;;;;;16.52;5.22;;;;;;;18.08;58.06;101261.47;4993317;28;20030;-50
2023/06/03 02:27:27;;;;;;;16.15;5.22;;;;;;;18.08;57.64;101261.47;4993565;28;20113;-55
2023/06/03 02:29:54;;;;;;;18.40;5.55;;;;;;;17.67;58.09;101255.31;4993406;28;20072;-52
2023/06/03 02:32:21;;;;;;;22.63;6.03;;;;;;;17.67;58.25;101256.16;4993549;28;20038;-57
2023/06/03 02:34:50;;;;;;;24.48;6.22;;;;;;;17.56;58.54;101253.50;4993414;28;20566;-54
2023/06/03 02:37:17;;;;;;;20.80;5.75;;;;;;;17.39;59.20;101262.38;4993442;28;20495;-56
2023/06/03 02:39:44;;;;;;;16.85;5.20;;;;;;;17.18;60.46;101259.50;4993580;28;20026;-57
2023/06/03 02:42:11;;;;;;;23.55;6.47;;;;;;;17.43;60.02;101260.00;4993271;28;20033;-55
2023/06/03 02:44:38;;;;;;;17.50;5.53;;;;;;;17.05;60.77;101264.13;4993227;28;20037;-53
2023/06/03 02:47:04;;;;;;;23.48;6.45;;;;;;;17.18;60.79;101254.09;4993208;28;20109;-55
2023/06/03 02:49:31;;;;;;;19.83;6.18;;;;;;;16.99;60.85;101261.53;4993258;28;20379;-54
2023/06/03 02:51:58;;;;;;;23.63;6.05;;;;;;;16.46;62.37;101266.03;4993989;28;20080;-49
2023/06/03 02:54:25;;;;;;;24.83;6.90;;;;;;;16.32;63.41;101260.03;4997003;28;20031;-57
2023/06/03 02:56:51;;;;;;;20.45;5.47;;;;;;;16.26;63.80;101260.94;4997081;28;20026;-57
2023/06/03 02:59:17;;;;;;;26.90;6.97;;;;;;;15.94;65.01;101257.75;4997377;28;20552;-54
2023/06/03 03:01:43;;;;;;;21.55;5.88;;;;;;;15.78;65.75;101261.94;4997036;28;20033;-56
2023/06/03 03:04:10;;;;;;;21.15;6.35;;;;;;;15.53;66.76;101264.72;4997216;28;20391;-52
2023/06/03 03:06:37;;;;;;;18.05;5.30;;;;;;;15.08;68.71;101258.06;4996944;28;20398;-60
2023/06/03 03:09:07;;;;;;;23.88;7.03;;;;;;;14.91;69.69;101268.59;4997244;28;20026;-58
2023/06/03 03:11:33;;;;;;;20.25;7.03;;;;;;;14.95;69.46;101269.81;4996767;28;20053;-58
2023/06/03 03:14:01;;;;;;;27.55;6.53;;;;;;;14.91;69.38;101263.22;4997026;28;20533;-61
2023/06/03 03:16:28;;;;;;;26.90;7.63;;;;;;;14.63;70.43;101266.41;4996690;28;20041;-58
2023/06/03 03:18:54;;;;;;;24.98;8.20;;;;;;;14.41;71.17;101266.78;4996818;28;20049;-61
2023/06/03 03:21:21;;;;;;;25.98;6.88;;;;;;;14.32;72.17;101259.19;4996590;28;20386;-64
2023/06/03 03:23:47;;;;;;;25.52;6.90;;;;;;;14.00;73.09;101262.78;4996486;28;20066;-61
2023/06/03 03:26:14;;;;;;;23.00;6.68;;;;;;;13.97;73.67;101268.59;4996536;28;20386;-61
2023/06/03 03:28:41;;;;;;;22.45;7.15;;;;;;;13.95;73.95;101267.16;4996905;28;20030;-64
2023/06/03 03:31:09;;;;;;;33.10;7.72;;;;;;;14.00;73.63;101261.97;4996395;28;20036;-61
2023/06/03 03:33:36;;;;;;;28.98;7.53;;;;;;;13.69;74.65;101265.47;4996555;28;20026;-61
2023/06/03 03:36:10;;;;;;;28.38;8.35;;;;;;;13.75;74.20;101267.28;4996132;28;20049;-62
2023/06/03 03:38:37;;;;;;;34.00;7.70;;;;;;;13.78;74.27;101274.13;4996240;28;20347;-62
2023/06/03 03:41:07;;;;;;;28.05;8.52;;;;;;;13.74;74.96;101273.72;4996270;28;20022;-53
2023/06/03 03:43:34;;;;;;;26.75;8.13;;;;;;;13.75;74.81;101272.66;4995759;28;20072;-54
2023/06/03 03:46:00;;;;;;;29.73;8.48;;;;;;;13.73;74.76;101272.88;4996185;28;20375;-56
2023/06/03 03:48:30;;;;;;;23.92;7.43;;;;;;;13.74;74.16;101273.72;4996125;28;20029;-53
2023/06/03 03:50:56;;;;;;;21.10;6.88;;;;;;;13.84;73.94;101278.63;4996022;28;20027;-53
2023/06/03 03:53:35;;;;;;;22.95;7.72;;;;;;;13.74;74.42;101271.84;4996095;28;20474;-52
2023/06/03 03:56:02;;;;;;;34.97;8.00;;;;;;;13.70;74.84;101284.06;4995938;28;20109;-54
2023/06/03 03:58:37;;;;;;;26.80;7.80;;;;;;;13.62;75.50;101289.72;4995904;28;20041;-53
2023/06/03 04:01:23;;;;;;;27.98;7.50;;;;;;;13.66;75.20;101292.81;4996130;28;20455;-54
2023/06/03 04:03:51;;;;;;;22.63;7.93;;;;;;;13.68;74.17;101290.72;4995695;28;20027;-53
2023/06/03 04:06:38;;;;;;;28.98;7.47;;;;;;;13.66;74.60;101290.13;4995790;28;20022;-53
2023/06/03 04:09:05;;;;;;;23.48;7.68;;;;;;;13.57;74.79;101288.72;4995748;28;20041;-54
2023/06/03 04:11:37;;;;;;;22.95;6.97;;;;;;;13.54;74.80;101278.38;4995709;28;20022;-54
2023/06/03 04:14:08;;;;;;;19.65;7.40;;;;;;;13.59;74.72;101292.81;4995943;28;20034;-54
2023/06/03 04:16:57;;;;;;;28.23;7.50;;;;;;;13.62;75.22;101291.59;4996235;28;20022;-53
2023/06/03 04:19:36;;;;;;;31.88;7.15;;;;;;;13.62;75.14;101288.88;4995593;28;20077;-53
2023/06/03 04:22:07;;;;;;;21.60;6.88;;;;;;;13.61;74.77;101298.00;4995733;28;20084;-52
2023/06/03 04:24:41;;;;;;;29.35;7.72;;;;;;;13.63;74.76;101291.34;4995633;28;20045;-53
2023/06/03 04:27:08;;;;;;;28.48;7.85;;;;;;;13.40;75.91;101288.38;4996156;28;20061;-54
2023/06/03 04:29:35;;;;;;;20.35;7.18;;;;;;;13.45;76.16;101286.69;4995738;28;20026;-54
2023/06/03 04:32:01;;;;;;;24.70;7.95;;;;;;;13.42;76.54;101280.91;4995479;28;20076;-54
2023/06/03 04:34:28;;;;;;;28.02;7.68;;;;;;;13.39;76.57;101281.34;4995329;28;20035;-52
2023/06/03 04:36:55;;;;;;;21.20;7.90;;;;;;;13.34;76.54;101286.53;4995238;28;20569;-53
2023/06/03 04:39:21;;;;;;;31.88;8.73;;;;;;;13.14;77.29;101287.41;4995322;28;20523;-54
2023/06/03 04:41:47;;;;;;;28.98;7.60;;;;;;;13.26;77.17;101286.75;4995454;28;20077;-51
2023/06/03 04:44:13;;;;;;;30.05;8.23;;;;;;;13.24;77.32;101278.09;4996359;28;20033;-52
2023/06/03 04:46:42;;;;;;;23.60;7.07;;;;;;;13.13;77.79;101283.06;4995900;28;20073;-51
2023/06/03 04:49:09;;;;;;;27.70;7.95;;;;;;;13.15;77.66;101283.66;4995410;28;20018;-50
2023/06/03 04:51:35;;;;;;;25.77;8.05;;;;;;;13.23;77.33;101276.47;4995018;28;20030;-52
2023/06/03 04:54:03;;;;;;;29.73;7.35;;;;;;;13.23;77.64;101277.28;4994896;28;20053;-53
2023/06/03 04:56:29;;;;;;;25.77;7.95;;;;;;;13.18;77.42;101275.19;4995212;28;20556;-52
2023/06/03 04:58:57;;;;;;;30.67;8.52;;;;;;;13.19;77.34;101276.00;4994954;28;20066;-52
2023/06/03 05:01:25;;;;;;;18.13;6.93;;;;;;;13.28;77.34;101268.56;4994929;28;20480;-52
2023/06/03 05:03:53;;;;;;;26.58;7.95;;;;;;;13.13;77.79;101272.31;4994654;28;20027;-50
2023/06/03 05:06:19;;;;;;;24.90;8.00;;;;;;;13.20;77.52;101277.66;4994716;28;20026;-53
2023/06/03 05:08:50;;;;;;;21.85;8.10;;;;;;;13.02;78.11;101285.59;4994753;28;20030;-53
2023/06/03 05:11:17;;;;;;;27.73;7.65;;;;;;;13.12;77.48;101275.22;4994742;28;20030;-52
2023/06/03 05:13:44;;;;;;;21.60;7.10;;;;;;;13.13;77.47;101276.88;4994559;28;20036;-55
2023/06/03 05:16:11;;;;;;;25.85;8.48;;;;;;;12.99;77.98;101272.56;4993693;28;20029;-53
2023/06/03 05:18:40;;;;;;;28.10;8.93;;;;;;;12.99;78.29;101275.25;4994479;28;20046;-52
2023/06/03 05:21:07;;;;;;;26.63;7.80;;;;;;;12.95;78.95;101274.84;4994507;28;20496;-53
2023/06/03 05:23:33;;;;;;;25.63;7.88;;;;;;;13.02;78.88;101274.84;4994408;28;20041;-53
2023/06/03 05:25:59;;;;;;;28.55;8.15;;;;;;;12.96;78.93;101289.94;4994406;28;20147;-53
2023/06/03 05:28:26;;;;;;;26.75;8.38;;;;;;;12.97;79.01;101288.06;4994629;28;20429;-52
2023/06/03 05:30:52;;;;;;;37.30;9.27;;;;;;;12.88;79.90;101284.78;4994673;28;20053;-52
2023/06/03 05:33:29;;;;;;;26.63;7.82;;;;;;;12.95;79.76;101275.69;4994559;28;20058;-55
2023/06/03 05:35:56;;;;;;;27.25;8.55;;;;;;;12.97;79.54;101278.16;4994079;28;20102;-54
2023/06/03 05:38:23;;;;;;;28.27;7.75;;;;;;;13.03;79.20;101282.69;4994264;28;20026;-54
2023/06/03 05:40:52;;;;;;;36.63;9.23;;;;;;;12.86;79.51;101279.63;4994301;28;20026;-54
2023/06/03 05:43:19;;;;;;;30.20;8.27;;;;;;;12.93;79.06;101288.47;4993995;28;20356;-53
2023/06/03 05:45:46;;;;;;;23.83;8.07;;;;;;;12.83;79.34;101285.44;4994056;28;20060;-53
2023/06/03 05:48:13;;;;;;;28.17;8.48;;;;;;;12.93;79.27;101282.28;4993924;28;20391;-53
2023/06/03 05:50:50;;;;;;;21.58;7.80;;;;;;;12.83;79.24;101282.75;4994048;28;20509;-54
2023/06/03 05:53:21;;;;;;;22.13;7.90;;;;;;;12.78;78.87;101274.50;4993967;28;20030;-53
2023/06/03 05:55:51;;;;;;;23.20;7.45;;;;;;;12.77;78.38;101280.03;4994062;28;20034;-53
2023/06/03 05:58:18;;;;;;;27.67;8.18;;;;;;;12.65;79.19;101280.69;4993871;28;20023;-54
2023/06/03 06:00:45;;;;;;;25.52;8.25;;;;;;;12.66;79.14;101278.84;4993873;28;20034;-53
2023/06/03 06:03:12;;;;;;;25.05;7.28;;;;;;;12.73;78.64;101276.97;4993694;28;20049;-53
2023/06/03 06:05:38;;;;;;;28.15;7.97;;;;;;;12.68;78.50;101268.72;4993763;28;20030;-53
2023/06/03 06:08:05;;;;;;;28.80;8.88;;;;;;;12.53;78.94;101270.78;4993831;28;20061;-53
2023/06/03 06:10:31;;;;;;;34.47;8.70;;;;;;;12.51;79.09;101273.69;4993788;28;20026;-54
2023/06/03 06:12:57;;;;;;;29.58;8.15;;;;;;;12.56;78.79;101270.38;4993661;28;20023;-53
2023/06/03 06:15:23;;;;;;;29.95;8.63;;;;;;;12.67;78.10;101267.88;4993986;28;20033;-53
2023/06/03 06:17:50;;;;;;;37.28;9.48;;;;;;;12.52;78.82;101269.16;4993708;28;20033;-52
2023/06/03 06:20:16;;;;;;;25.55;8.25;;;;;;;12.60;78.79;101277.81;4993714;28;20498;-54
2023/06/03 06:22:42;;;;;;;19.83;8.13;;;;;;;12.66;78.47;101270.78;4993600;28;20031;-53
2023/06/03 06:25:09;;;;;;;21.90;8.10;;;;;;;12.47;79.35;101272.44;4993541;28;20042;-52
2023/06/03 06:27:35;;;;;;;30.08;9.23;;;;;;;12.40;80.11;101267.09;4999576;28;20030;-53
2023/06/03 06:30:03;;;;;;;32.20;10.15;;;;;;;12.40;80.48;101280.50;5000149;28;20026;-52
2023/06/03 06:32:30;;;;;;;22.50;7.97;;;;;;;12.54;79.96;101280.50;4999938;28;20026;-52
2023/06/03 06:34:56;;;;;;;27.10;8.35;;;;;;;12.52;79.99;101269.97;5015183;28;20030;-53
2023/06/03 06:37:23;;;;;;;21.88;7.90;;;;;;;12.62;80.12;101270.38;4999734;28;20498;-52
2023/06/03 06:39:52;;;;;;;26.80;7.97;;;;;;;12.55;80.45;101260.69;4999937;28;20048;-51
2023/06/03 06:42:32;;;;;;;27.23;8.18;;;;;;;12.54;80.85;101267.06;4999990;28;20100;-52
2023/06/03 06:45:10;;;;;;;32.15;8.48;;;;;;;12.53;80.96;101270.78;5000006;28;20027;-52
2023/06/03 06:47:37;;;;;;;28.85;7.97;;;;;;;12.51;80.81;101272.88;4999908;28;20030;-52
2023/06/03 06:50:08;;;;;;;22.77;7.55;;;;;;;12.51;80.86;101267.50;4999904;28;20022;-52
2023/06/03 06:52:35;;;;;;;21.85;7.55;;;;;;;12.49;80.92;101267.69;5000004;28;20036;-52
2023/06/03 06:55:02;;;;;;;28.67;8.88;;;;;;;12.51;80.99;101280.94;5000199;28;20030;-52
2023/06/03 06:57:30;;;;;;;31.95;7.78;;;;;;;12.36;81.63;101265.84;4999756;28;20027;-51
2023/06/03 06:59:56;;;;;;;23.77;7.88;;;;;;;12.51;81.04;101260.28;4999796;28;20058;-51
2023/06/03 07:02:23;;;;;;;34.20;8.90;;;;;;;12.37;81.61;101275.53;5000105;28;20057;-52
2023/06/03 07:04:50;;;;;;;26.23;8.77;;;;;;;12.38;81.97;101271.84;4999746;28;20064;-51
2023/06/03 07:07:17;;;;;;;27.92;8.73;;;;;;;12.35;81.77;101279.50;4999863;28;20035;-54
2023/06/03 07:09:43;;;;;;;27.70;9.15;;;;;;;12.35;81.60;101274.13;4999746;28;20026;-51
2023/06/03 07:12:10;;;;;;;36.65;9.48;;;;;;;12.28;81.90;101274.13;4999707;28;20022;-51
2023/06/03 07:14:37;;;;;;;31.95;8.60;;;;;;;12.38;81.56;101273.69;4999887;28;20066;-52
2023/06/03 07:17:04;;;;;;;31.63;8.77;;;;;;;12.32;81.97;101272.66;4999752;28;20381;-52
2023/06/03 07:19:37;;;;;;;32.17;8.68;;;;;;;12.26;82.49;101276.16;4999569;28;20034;-52
2023/06/03 07:22:07;;;;;;;32.55;8.85;;;;;;;12.28;82.57;101270.63;4999609;28;20034;-52
2023/06/03 07:24:35;;;;;;;24.60;8.82;;;;;;;12.24;82.99;101258.63;4999584;28;20081;-52
2023/06/03 07:27:06;;;;;;;30.42;9.15;;;;;;;12.19;83.23;101261.94;4999814;28;20079;-52
2023/06/03 07:29:37;;;;;;;30.95;8.57;;;;;;;12.22;83.23;101258.84;4999654;28;20038;-52
2023/06/03 07:32:09;;;;;;;27.98;8.43;;;;;;;12.27;83.08;101252.84;4999597;28;20022;-52
2023/06/03 07:34:36;;;;;;;26.05;8.57;;;;;;;12.37;82.90;101262.13;4999453;28;20038;-52
2023/06/03 07:37:07;;;;;;;28.80;8.77;;;;;;;12.32;83.14;101248.50;4998949;28;20050;-52
2023/06/03 07:39:34;;;;;;;37.60;9.57;;;;;;;12.33;82.89;101250.19;4995949;28;20077;-50
2023/06/03 07:42:00;;;;;;;26.20;9.18;;;;;;;12.40;82.34;101255.53;4996231;28;20023;-52
2023/06/03 07:44:41;;;;;;;29.10;9.18;;;;;;;12.22;83.24;101249.97;4996070;28;20069;-52
2023/06/03 07:47:08;;;;;;;26.23;8.27;;;;;;;12.23;83.53;101240.88;4996174;28;20030;-52
2023/06/03 07:49:35;;;;;;;36.20;10.60;;;;;;;12.29;83.28;101251.63;4996589;28;20466;-52
2023/06/03 07:52:01;;;;;;;29.83;8.55;;;;;;;12.27;83.15;101239.41;4996640;28;20026;-51
2023/06/03 07:54:30;;;;;;;36.05;9.02;;;;;;;12.27;83.08;101248.31;4996331;28;20034;-49
2023/06/03 07:56:57;;;;;;;28.88;8.77;;;;;;;12.24;82.86;101246.03;4996355;28;20018;-50
2023/06/03 07:59:24;;;;;;;31.80;8.68;;;;;;;12.20;83.18;101246.66;4995979;28;20022;-51
2023/06/03 08:01:51;;;;;;;29.77;8.82;;;;;;;12.14;83.60;101240.25;4996364;28;20108;-52
2023/06/03 08:04:32;;;;;;;28.02;8.77;;;;;;;12.19;83.29;101248.50;4996117;28;20052;-52
2023/06/03 08:07:02;;;;;;;27.45;9.23;;;;;;;12.17;83.00;101245.22;4996204;28;20030;-52
2023/06/03 08:09:32;;;;;;;30.17;9.20;;;;;;;12.19;83.14;101245.81;4995857;28;20030;-51
2023/06/03 08:12:01;;;;;;;33.78;8.68;;;;;;;12.06;83.42;101243.16;4996111;28;20034;-51
2023/06/03 08:14:30;;;;;;;29.55;8.60;;;;;;;12.10;83.48;101247.06;4995790;28;20033;-52
2023/06/03 08:17:02;;;;;;;30.00;8.98;;;;;;;12.10;83.43;101247.91;4996012;28;20033;-53
2023/06/03 08:19:28;;;;;;;36.25;9.75;;;;;;;12.10;83.64;101242.53;4995588;28;20034;-54
2023/06/03 08:21:55;;;;;;;27.13;9.30;;;;;;;12.11;83.76;101240.69;4995839;28;20379;-53
2023/06/03 08:24:21;;;;;;;32.28;8.52;;;;;;;12.08;83.57;101236.53;4995446;28;20042;-52
2023/06/03 08:26:47;;;;;;;35.85;10.02;;;;;;;12.07;83.59;101234.06;4995566;28;20026;-52
2023/06/03 08:29:13;;;;;;;30.25;9.27;;;;;;;12.10;83.49;101236.31;4995520;28;20029;-53
2023/06/03 08:31:40;;;;;;;34.70;10.15;;;;;;;12.04;83.63;101240.66;4995356;28;20034;-53
2023/06/03 08:34:06;;;;;;;31.83;10.20;;;;;;;12.03;83.27;101239.00;4995501;28;20036;-53
2023/06/03 08:36:33;;;;;;;32.08;9.40;;;;;;;12.02;83.38;101236.53;4995129;28;20080;-52
2023/06/03 08:38:59;;;;;;;32.70;9.65;;;;;;;11.99;83.22;101228.88;4995232;28;20031;-53
2023/06/03 08:41:30;;;;;;;36.13;9.77;;;;;;;11.78;84.23;101241.44;4995144;28;20030;-53
2023/06/03 08:44:13;;;;;;;28.73;9.13;;;;;;;11.80;84.29;101246.59;4995204;28;20065;-52
2023/06/03 08:47:00;;;;;;;37.90;9.30;;;;;;;11.80;84.23;101234.00;4995271;28;20030;-52
2023/06/03 08:49:53;;;;;;;43.10;9.95;;;;;;;11.83;84.23;101232.81;4993982;28;20420;-52
2023/06/03 08:52:22;;;;;;;38.08;10.07;;;;;;;11.78;84.15;101225.34;4994807;28;20047;-50
2023/06/03 08:54:48;;;;;;;37.08;10.18;;;;;;;11.79;84.36;101218.13;4994723;28;20034;-50
2023/06/03 08:57:19;;;;;;;40.47;10.02;;;;;;;11.81;84.08;101216.06;4994945;28;20037;-53
2023/06/03 08:59:52;;;;;;;33.67;9.70;;;;;;;11.68;84.62;101219.56;4994914;28;20027;-52
2023/06/03 09:02:18;;;;;;;28.98;9.40;;;;;;;11.74;84.50;101231.31;4995106;28;20041;-51
2023/06/03 09:04:49;;;;;;;31.95;10.30;;;;;;;11.75;84.46;101224.94;4995048;28;20037;-53
2023/06/03 09:07:15;;;;;;;43.53;10.25;;;;;;;11.80;84.04;101223.28;4994809;28;20034;-49
2023/06/03 09:09:43;;;;;;;33.15;9.05;;;;;;;11.84;83.91;101218.38;4994766;28;20032;-51
2023/06/03 09:12:10;;;;;;;33.45;9.77;;;;;;;11.75;84.32;101219.56;4994709;28;20117;-50
2023/06/03 09:14:39;;;;;;;33.63;9.55;;;;;;;11.81;83.89;101224.09;4994613;28;20026;-51
2023/06/03 09:17:06;;;;;;;31.83;9.27;;;;;;;11.82;83.72;101221.25;4994592;28;20060;-51
2023/06/03 09:19:33;;;;;;;33.50;9.65;;;;;;;11.72;84.00;101223.50;4994596;28;20077;-49
2023/06/03 09:22:02;;;;;;;32.20;10.13;;;;;;;11.77;84.02;101217.50;4994482;28;20018;-51
2023/06/03 09:24:28;;;;;;;31.83;9.18;;;;;;;11.65;84.60;101214.59;4994303;28;20041;-51
2023/06/03 09:26:55;;;;;;;37.03;9.23;;;;;;;11.67;84.41;101217.91;4994266;28;20023;-50
2023/06/03 09:29:21;;;;;;;22.40;8.82;;;;;;;11.72;84.39;101219.97;4994320;28;20030;-52
2023/06/03 09:31:48;;;;;;;34.10;9.18;;;;;;;11.75;84.57;101212.34;4994640;28;20448;-52
2023/06/03 09:34:16;;;;;;;41.95;10.88;;;;;;;11.63;84.94;101212.13;4994189;28;20062;-50
2023/06/03 09:36:48;;;;;;;34.80;10.15;;;;;;;11.65;85.20;101217.28;4994153;28;20043;-49
2023/06/03 09:39:17;;;;;;;35.65;9.60;;;;;;;11.63;84.96;101209.44;4994326;28;20549;-51
2023/06/03 09:41:45;;;;;;;30.15;9.63;;;;;;;11.60;85.17;101211.69;4994164;28;20032;-49
2023/06/03 09:44:11;;;;;;;29.58;9.43;;;;;;;11.65;84.93;101211.91;4994419;28;20035;-49
2023/06/03 09:46:38;;;;;;;30.27;9.88;;;;;;;11.56;84.83;101210.47;4994530;28;20037;-49
2023/06/03 09:49:12;;;;;;;36.90;10.60;;;;;;;11.55;84.99;101209.66;4994041;28;20076;-51
2023/06/03 09:51:46;;;;;;;35.42;10.35;;;;;;;11.54;84.89;101217.88;4993946;28;20346;-52
2023/06/03 09:54:23;;;;;;;33.50;9.65;;;;;;;11.56;85.03;101216.66;4994280;28;20040;-52
2023/06/03 09:56:50;;;;;;;29.45;9.60;;;;;;;11.51;85.35;101204.88;4993940;28;20054;-51
2023/06/03 09:59:23;;;;;;;36.47;9.57;;;;;;;11.53;85.57;101211.69;4993709;28;20084;-53
2023/06/03 10:01:52;;;;;;;41.20;10.10;;;;;;;11.56;85.12;101205.94;4993382;28;20041;-52
2023/06/03 10:04:46;;;;;;;37.45;10.15;;;;;;;11.50;85.64;101211.28;4993724;28;20026;-51
2023/06/03 10:07:16;;;;;;;40.38;9.50;;;;;;;11.44;86.08;101210.25;4994000;28;20028;-49
2023/06/03 10:09:44;;;;;;;38.47;9.80;;;;;;;11.52;85.91;101201.16;4993630;28;20026;-51
2023/06/03 10:12:12;;;;;;;32.97;9.88;;;;;;;11.43;86.29;101207.75;4993563;28;20053;-51
2023/06/03 10:14:48;;;;;;;32.47;9.95;;;;;;;11.54;85.83;101201.78;4993546;28;20022;-52
2023/06/03 10:17:17;;;;;;;39.20;9.63;;;;;;;11.43;86.66;101200.53;4993679;28;20022;-48
2023/06/03 10:19:45;;;;;;;41.58;11.18;;;;;;;11.48;86.62;101199.91;4993542;28;20023;-51
2023/06/03 10:22:13;;;;;;;37.20;11.10;;;;;;;11.55;86.47;101203.47;4993342;28;20398;-51
2023/06/03 10:24:42;;;;;;;33.17;9.88;;;;;;;11.61;86.39;101202.63;4993430;28;20027;-51
2023/06/03 10:27:10;;;;;;;21.95;9.07;;;;;;;11.62;85.96;101199.75;4993677;28;20076;-51
2023/06/03 10:29:37;;;;;;;34.38;9.63;;;;;;;11.63;85.78;101196.03;4993521;28;20042;-49
2023/06/03 10:32:06;;;;;;;28.60;8.43;;;;;;;11.67;85.36;101198.31;4993478;28;20030;-50
2023/06/03 10:34:44;;;;;;;38.58;10.88;;;;;;;11.65;85.36;101195.81;4993318;28;20030;-51
2023/06/03 10:37:13;;;;;;;33.25;9.40;;;;;;;11.58;85.77;101197.69;4993255;28;20565;-49
2023/06/03 10:39:42;;;;;;;28.65;8.60;;;;;;;11.67;85.27;101201.81;4993392;28;20053;-51
2023/06/03 10:42:11;;;;;;;36.65;9.43;;;;;;;11.69;85.32;101188.19;4993627;28;20105;-51
2023/06/03 10:44:38;;;;;;;38.72;10.43;;;;;;;11.72;85.21;101193.16;4993273;28;20038;-51
2023/06/03 10:47:22;;;;;;;39.08;10.75;;;;;;;11.59;85.80;101194.78;4992068;28;20027;-48
2023/06/03 10:49:55;;;;;;;37.40;9.20;;;;;;;11.74;85.36;101191.91;4993521;28;20018;-51
2023/06/03 10:53:18;;;;;;;36.08;9.40;;;;;;;11.63;85.83;101185.31;4993269;28;20027;-51
2023/06/03 10:56:01;;;;;;;36.65;9.93;;;;;;;11.66;86.36;101186.78;4971871;28;20035;-52
2023/06/03 10:58:28;;;;;;;44.00;11.88;;;;;;;11.67;86.25;101195.63;4971753;28;20055;-51
2023/06/03 11:00:59;;;;;;;32.80;10.30;;;;;;;11.63;86.33;101203.25;4984487;28;20423;-49
2023/06/03 11:03:31;;;;;;;37.58;9.18;;;;;;;11.71;86.22;101205.72;4993269;28;20030;-50
2023/06/03 11:06:21;;;;;;;39.65;10.70;;;;;;;11.61;86.18;101208.00;4993483;28;20069;-49
2023/06/03 11:09:16;;;;;;;35.17;9.82;;;;;;;11.61;86.46;101211.50;4993171;28;20034;-49
2023/06/03 11:11:42;;;;;;;39.85;10.32;;;;;;;11.76;85.53;101210.47;4993251;28;20022;-51
2023/06/03 11:14:10;;;;;;;25.55;9.63;;;;;;;11.68;85.72;101208.84;4995665;28;20033;-52
2023/06/03 11:17:05;;;;;;;43.92;10.20;;;;;;;11.73;85.66;101195.63;4996720;28;20026;-53
2023/06/03 11:19:47;;;;;;;35.40;9.55;;;;;;;11.75;85.26;101203.47;4991975;28;20031;-50
2023/06/03 11:22:37;;;;;;;40.40;10.80;;;;;;;11.77;85.32;101206.75;4997036;28;20030;-52
2023/06/03 11:25:05;;;;;;;33.40;9.65;;;;;;;11.81;85.09;101208.00;4996536;28;20026;-52
2023/06/03 11:27:31;;;;;;;28.52;8.57;;;;;;;11.68;85.77;101216.88;4996586;28;20060;-49